MST,Max TemperatureF,Mean TemperatureF,Min TemperatureF,Max Dew PointF,MeanDew PointF,Min DewpointF,Max Humidity, Mean Humidity, Min Humidity, Max Sea Level PressureIn, Mean Sea Level PressureIn, Min Sea Level PressureIn, Max VisibilityMiles, Mean VisibilityMiles, Min VisibilityMiles, Max Wind SpeedMPH, Mean Wind SpeedMPH, Max Gust SpeedMPH,PrecipitationIn, CloudCover, Events, WindDirDegrees
2013-2-1,51,34,17,27,19,12,93,63,26,30.18,30.09,30.02,10,10,7,26,6,34,0.00,1,,323
2013-2-2,55,38,21,25,18,14,86,55,25,30.30,30.25,30.19,10,10,10,14,5,,0.00,0,,122
2013-2-3,53,37,21,19,14,5,74,44,19,30.25,30.02,29.90,10,10,10,9,3,,0.00,0,,25
2013-2-4,55,37,19,16,12,7,68,38,18,29.98,29.91,29.83,10,10,10,13,6,,0.00,1,,106
2013-2-5,57,39,21,21,17,9,69,44,25,30.07,29.94,29.85,10,10,10,14,5,16,0.00,0,,63
2013-2-6,53,42,30,32,23,16,75,52,30,30.10,29.88,29.82,10,10,10,18,5,29,0.00,3,,349
2013-2-7,48,34,19,25,17,3,93,55,27,30.17,30.10,30.02,10,10,10,14,5,20,0.00,0,,133
2013-2-8,51,33,15,19,13,7,86,52,21,30.02,29.85,29.70,10,10,10,9,4,,0.00,0,,1
2013-2-9,39,31,23,28,18,9,93,62,44,29.70,29.62,29.54,10,9,2,20,9,26,0.00,2,,14
2013-2-10,37,26,14,18,13,7,79,52,33,30.04,29.79,29.58,10,10,10,26,15,31,0.00,6,,335
2013-2-11,28,20,12,18,13,3,93,71,51,30.06,30.02,29.96,10,10,2,8,5,,0.00,5,,234
2013-2-12,44,27,10,10,7,1,92,50,18,30.03,30.01,29.97,10,10,10,9,4,,0.00,0,,162
2013-2-13,50,32,15,16,11,3,73,47,24,30.03,29.95,29.90,10,10,10,14,3,,0.00,1,,131
2013-2-14,30,26,21,23,18,10,86,72,51,30.28,30.16,30.00,10,9,1,18,8,28,0.00,5,,207
2013-2-15,42,30,17,21,15,7,93,65,29,30.29,30.25,30.21,10,10,4,30,8,37,0.00,4,,250
2013-2-16,59,36,14,21,13,1,86,45,17,30.20,30.07,29.95,10,10,10,22,4,26,0.00,0,,324
2013-2-17,60,42,23,18,10,1,55,35,11,29.94,29.72,29.56,10,10,9,31,7,41,0.00,1,,354
2013-2-18,42,30,17,19,10,3,73,43,19,30.08,29.95,29.78,10,10,10,25,14,29,0.00,2,,353
2013-2-19,39,26,14,16,11,7,79,56,35,30.08,29.94,29.81,10,10,10,13,5,,0.00,0,,360
2013-2-20,37,26,15,23,15,10,86,71,45,29.80,29.75,29.64,10,10,10,15,8,,0.00,0,,356
2013-2-21,28,21,14,19,17,10,93,83,69,29.87,29.82,29.76,10,6,0,12,3,,0.12,7,,146
2013-2-22,33,18,3,25,14,0,100,81,55,29.94,29.88,29.81,10,6,0,13,5,,0.03,3,,182
2013-2-23,37,24,10,27,17,7,100,75,52,29.81,29.71,29.63,10,8,2,12,2,,0.00,2,,351
2013-2-24,28,22,15,27,23,10,100,88,69,30.09,29.92,29.72,10,4,0,23,11,31,0.00,7,,353
2013-2-25,30,16,1,19,12,0,100,84,60,30.09,29.97,29.82,10,8,0,9,3,,0.00,1,,153
2013-2-26,35,22,10,25,18,7,100,75,52,30.12,29.90,29.78,10,8,0,28,9,37,0.01,7,,339
2013-2-27,33,24,14,18,13,3,86,61,43,30.23,30.19,30.13,10,10,10,15,9,,0.00,0,,205
2013-2-28,37,22,6,19,13,-2,93,61,38,30.23,30.20,30.16,10,10,10,13,4,,0.00,1,,179